Time,TemperatureF,DewpointF,PressureIn,WindDirection,WindDirectionDegrees,WindSpeedMPH,WindSpeedGustMPH,Humidity,HourlyPrecipIn,Conditions,Clouds,dailyrainin,SoftwareType,DateUTC
2013-07-26 00:10:00,71.6,69.8,29.92,ESE,112,4.7,-999.0,94,-99.99,,,0.00,Acu-Link.com,2013-07-26 05:10:00,
2013-07-26 00:25:00,71.8,70.0,29.91,SE,135,2.7,-999.0,94,-99.99,,,0.00,Acu-Link.com,2013-07-26 05:25:00,
2013-07-26 00:41:00,71.8,70.3,29.91,NE,45,2.7,-999.0,95,-99.99,,,0.00,Acu-Link.com,2013-07-26 05:41:00,
2013-07-26 00:56:00,71.4,69.9,29.91,ENE,67,2.2,-999.0,95,-99.99,,,0.00,Acu-Link.com,2013-07-26 05:56:00,
2013-07-26 01:11:00,71.4,69.9,29.91,East,90,1.7,-999.0,95,-99.99,,,0.00,Acu-Link.com,2013-07-26 06:11:00,
2013-07-26 01:41:00,71.4,69.6,29.91,SE,135,1.1,-999.0,94,-99.99,,,0.00,Acu-Link.com,2013-07-26 06:41:00,
2013-07-26 02:11:00,71.2,69.7,29.91,WNW,292,1.7,-999.0,95,-99.99,,,0.00,Acu-Link.com,2013-07-26 07:11:00,
2013-07-26 10:53:00,73.8,72.0,29.94,SSW,202,0.0,-999.0,94,-99.99,,,0.00,Acu-Link.com,2013-07-26 15:53:00,
2013-07-26 11:09:00,73.0,71.5,29.94,WSW,247,2.2,-999.0,95,-99.99,,,0.07,Acu-Link.com,2013-07-26 16:09:00,
2013-07-26 11:24:00,72.1,69.0,29.94,South,180,1.7,-999.0,90,-99.99,,,0.10,Acu-Link.com,2013-07-26 16:24:00,
2013-07-26 11:39:00,72.3,69.2,29.94,South,180,4.2,-999.0,90,-99.99,,,0.11,Acu-Link.com,2013-07-26 16:39:00,
2013-07-26 11:55:00,72.7,70.6,29.94,SSW,202,2.2,-999.0,93,-99.99,,,0.14,Acu-Link.com,2013-07-26 16:55:00,
2013-07-26 12:10:00,72.0,69.5,29.94,SSW,202,2.7,-999.0,92,-99.99,,,0.17,Acu-Link.com,2013-07-26 17:10:00,
2013-07-26 12:25:00,72.3,68.2,29.94,South,180,2.2,-999.0,87,-99.99,,,0.17,Acu-Link.com,2013-07-26 17:25:00,
2013-07-26 12:40:00,72.5,71.0,29.93,SE,135,0.0,-999.0,95,-99.99,,,0.17,Acu-Link.com,2013-07-26 17:40:00,
2013-07-26 12:55:00,72.3,70.8,29.94,South,180,1.7,-999.0,95,-99.99,,,0.17,Acu-Link.com,2013-07-26 17:55:00,
2013-07-26 13:10:00,73.0,71.8,29.93,SSW,202,1.1,-999.0,96,-99.99,,,0.17,Acu-Link.com,2013-07-26 18:10:00,
2013-07-26 13:26:00,74.7,72.9,29.93,SSW,202,2.7,-999.0,94,-99.99,,,0.17,Acu-Link.com,2013-07-26 18:26:00,
2013-07-26 13:41:00,76.3,73.8,29.93,SSW,202,2.7,-999.0,92,-99.99,,,0.17,Acu-Link.com,2013-07-26 18:41:00,
2013-07-26 13:56:00,82.8,76.7,29.92,SSW,202,6.3,-999.0,82,-99.99,,,0.17,Acu-Link.com,2013-07-26 18:56:00,
2013-07-26 14:11:00,79.7,75.5,29.92,South,180,8.3,-999.0,87,-99.99,,,0.17,Acu-Link.com,2013-07-26 19:11:00,
2013-07-26 14:33:00,83.5,76.7,29.90,South,180,8.9,-999.0,80,-99.99,,,0.17,Acu-Link.com,2013-07-26 19:33:00,
2013-07-26 23:01:00,68.5,59.9,29.93,NW,315,2.2,-999.0,74,-99.99,,,0.21,Acu-Link.com,2013-07-27 04:01:00,
2013-07-26 23:39:00,65.3,59.7,29.95,NW,315,4.2,-999.0,82,-99.99,,,0.21,Acu-Link.com,2013-07-27 04:39:00,